createdAt,value
2019-02-28T00:01:20.895Z,55.15
2019-02-28T00:06:22.876Z,50.63
2019-02-28T00:09:03.226Z,51.55
2019-02-28T00:11:39.556Z,52.40
2019-02-28T00:14:10.481Z,50.20
2019-02-28T00:16:40.712Z,52.88
2019-02-28T00:19:11.132Z,52.45
2019-02-28T00:21:41.808Z,50.20
2019-02-28T00:24:12.656Z,45.40
2019-02-28T00:26:47.610Z,47.75
2019-02-28T00:29:15.883Z,48.42
2019-02-28T00:31:49.488Z,44.42
2019-02-28T00:34:17.878Z,46.25
2019-02-28T00:36:50.345Z,45.45
2019-02-28T00:39:19.878Z,45.67
2019-02-28T00:41:50.021Z,45.58
2019-02-28T00:44:20.256Z,45.73
2019-02-28T00:46:50.417Z,44.30
2019-02-28T00:49:20.629Z,47.05
2019-02-28T00:51:50.800Z,45.40
2019-02-28T00:54:21.032Z,44.83
2019-02-28T00:56:52.511Z,46.05
2019-02-28T00:59:22.928Z,46.68
2019-02-28T01:01:53.098Z,47.33
2019-02-28T01:04:23.321Z,43.08
2019-02-28T01:06:53.491Z,43.90
2019-02-28T01:09:23.697Z,45.90
2019-02-28T01:11:53.849Z,43.15
2019-02-28T01:14:24.085Z,45.03
2019-02-28T01:16:54.230Z,44.73
2019-02-28T01:19:24.461Z,48.33
2019-02-28T01:21:56.321Z,46.35
2019-02-28T01:24:26.725Z,45.75
2019-02-28T01:26:56.875Z,48.20
2019-02-28T01:29:27.087Z,47.67
2019-02-28T01:31:57.226Z,48.42
2019-02-28T01:34:29.035Z,45.75
2019-02-28T01:36:59.296Z,45.63
2019-02-28T01:39:30.740Z,44.25
2019-02-28T01:42:01.373Z,44.70
2019-02-28T01:44:35.548Z,46.25
2019-02-28T01:47:03.367Z,44.05
2019-02-28T01:49:33.589Z,43.15
2019-02-28T01:52:03.734Z,45.33
2019-02-28T01:54:33.948Z,44.70
2019-02-28T01:57:04.111Z,41.98
2019-02-28T01:59:35.417Z,44.03
2019-02-28T02:02:06.691Z,43.85
2019-02-28T02:04:37.300Z,44.20
2019-02-28T02:07:07.451Z,42.27
2019-02-28T02:09:37.661Z,39.78
2019-02-28T02:12:07.830Z,41.00
2019-02-28T02:14:38.066Z,38.42
2019-02-28T02:17:08.202Z,40.28
2019-02-28T02:19:38.445Z,39.88
2019-02-28T02:22:09.374Z,38.53
2019-02-28T02:24:40.634Z,36.98
2019-02-28T02:27:10.778Z,36.70
2019-02-28T02:29:40.982Z,37.88
2019-02-28T02:32:11.139Z,36.28
2019-02-28T02:34:41.380Z,34.18
2019-02-28T02:37:11.603Z,33.63
2019-02-28T02:39:43.013Z,33.73
2019-02-28T02:42:13.368Z,33.55
2019-02-28T02:44:43.553Z,32.08
2019-02-28T02:47:13.815Z,34.27
2019-02-28T02:49:44.131Z,32.80
2019-02-28T02:52:14.339Z,32.08
2019-02-28T02:54:44.578Z,31.62
2019-02-28T02:57:15.740Z,33.13
2019-02-28T02:59:46.195Z,33.58
2019-02-28T03:02:16.428Z,31.97
2019-02-28T03:04:46.617Z,32.10
2019-02-28T03:07:23.349Z,32.30
2019-02-28T03:09:48.633Z,31.97
2019-02-28T03:12:18.782Z,30.32
2019-02-28T03:14:49.932Z,31.33
2019-02-28T03:17:20.588Z,32.23
2019-02-28T03:19:50.754Z,31.57
2019-02-28T03:22:28.333Z,32.93
2019-02-28T03:24:52.748Z,33.23
2019-02-28T03:27:22.974Z,33.02
2019-02-28T03:29:53.154Z,33.45
2019-02-28T03:32:23.388Z,31.97
2019-02-28T03:34:58.076Z,36.80
2019-02-28T03:37:25.392Z,35.30
2019-02-28T03:40:02.714Z,36.38
2019-02-28T03:42:28.958Z,34.58
2019-02-28T03:44:59.309Z,35.35
2019-02-28T03:47:29.507Z,36.28
2019-02-28T03:49:59.731Z,41.40
2019-02-28T03:52:29.882Z,40.48
2019-02-28T03:55:03.406Z,39.05
2019-02-28T03:57:33.670Z,39.58
2019-02-28T04:02:36.238Z,38.40
2019-02-28T04:05:08.076Z,39.13
2019-02-28T04:07:38.274Z,38.50
2019-02-28T04:10:10.891Z,40.28
2019-02-28T04:12:45.688Z,42.17
2019-02-28T04:15:16.045Z,41.65
2019-02-28T04:17:46.265Z,49.38
2019-02-28T04:20:16.483Z,49.13
2019-02-28T04:22:46.825Z,51.70
2019-02-28T04:25:22.763Z,48.65
2019-02-28T04:27:48.889Z,48.98
2019-02-28T04:30:19.126Z,47.13
2019-02-28T04:32:49.349Z,48.15
2019-02-28T04:35:23.941Z,53.60
2019-02-28T04:37:51.414Z,53.58
2019-02-28T04:40:24.033Z,54.33
2019-02-28T04:45:23.358Z,46.55
2019-02-28T04:47:54.830Z,48.45
2019-02-28T04:50:25.037Z,47.23
2019-02-28T04:52:55.253Z,49.45
2019-02-28T04:55:25.494Z,49.55
2019-02-28T04:57:55.712Z,51.70
2019-02-28T05:00:25.934Z,52.90
2019-02-28T05:02:56.196Z,49.50
2019-02-28T05:05:26.442Z,51.77
2019-02-28T05:07:56.678Z,52.10
2019-02-28T05:10:26.913Z,58.33
2019-02-28T05:12:57.125Z,50.20
2019-02-28T05:15:27.361Z,49.77
2019-02-28T05:17:57.579Z,60.70
2019-02-28T05:20:27.812Z,64.72
2019-02-28T05:22:59.236Z,65.45
2019-02-28T05:25:29.885Z,65.52
2019-02-28T05:28:00.125Z,62.15
2019-02-28T05:30:30.341Z,53.75
2019-02-28T05:33:00.555Z,57.85
2019-02-28T05:35:30.776Z,61.75
2019-02-28T05:38:02.174Z,59.60
2019-02-28T05:40:32.397Z,55.08
2019-02-28T05:43:02.631Z,55.98
2019-02-28T05:45:32.863Z,54.03
2019-02-28T05:48:03.938Z,54.63
2019-02-28T05:53:06.277Z,67.65
2019-02-28T05:55:36.226Z,64.95
2019-02-28T05:58:06.472Z,64.82
2019-02-28T06:00:37.073Z,59.58
2019-02-28T06:03:08.050Z,53.70
2019-02-28T06:05:38.937Z,57.00
2019-02-28T06:08:09.422Z,58.50
2019-02-28T06:10:39.587Z,56.33
2019-02-28T06:13:09.802Z,54.42
2019-02-28T06:15:39.976Z,55.40
2019-02-28T06:18:10.206Z,54.30
2019-02-28T06:20:40.365Z,56.88
2019-02-28T06:23:10.593Z,61.73
2019-02-28T06:25:40.773Z,64.60
2019-02-28T06:28:12.032Z,69.90
2019-02-28T06:30:42.771Z,54.40
2019-02-28T06:33:13.175Z,72.65
2019-02-28T06:35:43.349Z,71.20
2019-02-28T06:38:16.225Z,66.55
2019-02-28T06:40:46.982Z,68.07
2019-02-28T06:43:18.919Z,68.50
2019-02-28T06:45:49.036Z,66.67
2019-02-28T06:48:20.842Z,67.32
2019-02-28T06:50:51.116Z,62.80
2019-02-28T06:53:21.341Z,63.02
2019-02-28T06:55:51.567Z,60.30
2019-02-28T06:58:21.801Z,59.10
2019-02-28T07:00:52.037Z,68.17
2019-02-28T07:03:22.254Z,65.72
2019-02-28T07:05:52.474Z,64.58
2019-02-28T07:08:24.760Z,66.15
2019-02-28T07:10:54.540Z,66.92
2019-02-28T07:13:24.774Z,67.42
2019-02-28T07:15:55.546Z,63.70
2019-02-28T07:18:26.828Z,65.62
2019-02-28T07:20:57.054Z,61.73
2019-02-28T07:23:29.945Z,59.67
2019-02-28T07:25:59.122Z,61.50
2019-02-28T07:28:36.041Z,63.05
2019-02-28T07:31:02.320Z,60.70
2019-02-28T07:33:32.537Z,60.78
2019-02-28T07:36:05.596Z,62.15
2019-02-28T07:38:34.603Z,63.20
2019-02-28T07:41:04.822Z,56.37
2019-02-28T07:43:35.052Z,57.73
2019-02-28T07:46:07.720Z,57.55
2019-02-28T07:48:38.333Z,56.55
2019-02-28T07:51:09.711Z,57.60
2019-02-28T07:53:40.968Z,57.53
2019-02-28T07:56:11.717Z,57.17
2019-02-28T07:58:41.931Z,65.12
2019-02-28T08:01:12.124Z,67.32
2019-02-28T08:03:43.370Z,61.60
2019-02-28T08:06:14.169Z,62.90
2019-02-28T08:08:44.393Z,58.60
2019-02-28T08:11:14.565Z,53.83
2019-02-28T08:13:44.779Z,51.10
2019-02-28T08:16:14.945Z,53.28
2019-02-28T08:18:45.158Z,55.90
2019-02-28T08:21:15.322Z,55.85
2019-02-28T08:23:45.532Z,56.05
2019-02-28T08:26:18.789Z,54.58
2019-02-28T08:28:47.544Z,58.13
2019-02-28T08:31:17.699Z,55.78
2019-02-28T08:33:49.108Z,59.53
2019-02-28T08:36:19.531Z,61.55
2019-02-28T08:38:49.752Z,57.53
2019-02-28T08:41:22.579Z,58.95
2019-02-28T08:43:51.776Z,59.67
2019-02-28T08:46:22.911Z,58.92
2019-02-28T08:48:53.151Z,59.55
2019-02-28T08:51:23.333Z,60.58
2019-02-28T08:53:53.581Z,58.73
2019-02-28T08:56:23.806Z,56.58
2019-02-28T08:58:54.026Z,57.45
2019-02-28T09:01:24.250Z,55.60
2019-02-28T09:03:54.465Z,59.35
2019-02-28T09:06:24.709Z,61.42
2019-02-28T09:08:56.613Z,59.40
2019-02-28T09:11:26.965Z,58.10
2019-02-28T09:13:57.198Z,59.88
2019-02-28T09:16:27.372Z,61.63
2019-02-28T09:19:00.951Z,58.92
2019-02-28T09:21:29.421Z,60.23
2019-02-28T09:23:59.678Z,60.40
2019-02-28T09:26:31.297Z,61.02
2019-02-28T09:29:02.901Z,60.43
2019-02-28T09:31:38.660Z,60.23
2019-02-28T09:34:06.115Z,60.48
2019-02-28T09:36:36.296Z,61.00
2019-02-28T09:39:06.776Z,59.27
2019-02-28T09:41:40.169Z,58.60
2019-02-28T09:44:09.064Z,57.25
2019-02-28T09:46:39.270Z,60.35
2019-02-28T09:49:12.976Z,53.80
2019-02-28T09:51:42.533Z,49.88
2019-02-28T09:54:13.018Z,53.83
2019-02-28T09:56:44.559Z,56.25
2019-02-28T09:59:15.037Z,57.50
2019-02-28T10:01:45.216Z,61.13
2019-02-28T10:04:16.464Z,66.57
2019-02-28T10:06:48.547Z,67.65
2019-02-28T10:09:18.501Z,66.12
2019-02-28T10:11:48.662Z,61.98
2019-02-28T10:14:18.913Z,63.60
2019-02-28T10:16:49.534Z,61.90
2019-02-28T10:19:20.930Z,66.97
2019-02-28T10:21:52.163Z,67.60
2019-02-28T10:24:24.537Z,66.63
2019-02-28T10:26:54.425Z,63.85
2019-02-28T10:29:24.642Z,63.35
2019-02-28T10:31:54.876Z,69.70
2019-02-28T10:34:26.418Z,63.08
2019-02-28T10:36:56.958Z,59.48
2019-02-28T10:39:27.194Z,54.63
2019-02-28T10:41:57.426Z,54.67
2019-02-28T10:44:30.831Z,56.33
2019-02-28T10:46:59.445Z,56.33
2019-02-28T10:49:29.707Z,56.08
2019-02-28T10:51:59.866Z,62.25
2019-02-28T10:54:30.102Z,63.63
2019-02-28T10:57:02.998Z,63.28
2019-02-28T10:59:32.141Z,68.90
2019-02-28T11:02:02.332Z,65.97
2019-02-28T11:04:32.674Z,65.50
2019-02-28T11:07:03.132Z,65.12
2019-02-28T11:09:33.487Z,67.60
2019-02-28T11:12:03.671Z,64.77
2019-02-28T11:14:35.531Z,65.80
2019-02-28T11:17:12.274Z,63.63
2019-02-28T11:22:07.379Z,66.28
2019-02-28T11:24:37.606Z,63.63
2019-02-28T11:27:07.777Z,62.98
2019-02-28T11:29:38.011Z,64.30
2019-02-28T11:32:08.183Z,65.83
2019-02-28T11:34:38.426Z,63.00
2019-02-28T11:37:08.964Z,60.78
2019-02-28T11:39:40.237Z,60.73
2019-02-28T11:42:10.453Z,58.33
2019-02-28T11:44:43.547Z,55.95
2019-02-28T11:47:12.538Z,54.93
2019-02-28T11:49:42.768Z,58.25
2019-02-28T11:52:12.997Z,51.55
2019-02-28T11:54:45.177Z,55.25
2019-02-28T11:57:15.043Z,52.95
2019-02-28T11:59:45.251Z,53.42
2019-02-28T12:02:15.413Z,52.55
2019-02-28T12:04:45.649Z,49.38
2019-02-28T12:07:15.813Z,52.33
2019-02-28T12:09:47.504Z,52.85
2019-02-28T12:12:17.657Z,49.55
2019-02-28T12:14:47.885Z,51.37
2019-02-28T12:17:18.044Z,48.60
2019-02-28T12:19:50.691Z,46.45
2019-02-28T12:22:20.077Z,46.13
2019-02-28T12:24:50.304Z,47.33
2019-02-28T12:27:20.476Z,45.50
2019-02-28T12:29:50.703Z,45.00
2019-02-28T12:32:20.972Z,44.63
2019-02-28T12:34:51.198Z,46.00
2019-02-28T12:37:22.037Z,45.65
2019-02-28T12:39:53.300Z,46.00
2019-02-28T12:42:23.479Z,47.43
2019-02-28T12:44:53.717Z,44.95
2019-02-28T12:47:23.978Z,46.58
2019-02-28T12:49:54.287Z,45.35
2019-02-28T12:52:26.001Z,46.33
2019-02-28T12:54:56.856Z,43.10
2019-02-28T12:57:27.199Z,44.50
2019-02-28T12:59:57.415Z,44.13
2019-02-28T13:02:27.593Z,47.35
2019-02-28T13:04:57.876Z,46.00
2019-02-28T13:07:30.456Z,44.18
2019-02-28T13:09:59.952Z,46.00
2019-02-28T13:12:30.112Z,44.95
2019-02-28T13:15:00.480Z,46.05
2019-02-28T13:17:31.653Z,46.15
2019-02-28T13:20:02.980Z,47.70
2019-02-28T13:22:33.138Z,48.90
2019-02-28T13:25:03.393Z,46.77
2019-02-28T13:27:33.546Z,47.05
2019-02-28T13:30:10.680Z,50.12
2019-02-28T13:32:39.208Z,48.75
2019-02-28T13:35:13.146Z,47.17
2019-02-28T13:37:44.804Z,49.00
2019-02-28T13:40:16.374Z,49.10
2019-02-28T13:42:46.545Z,49.00
2019-02-28T13:45:23.304Z,47.23
2019-02-28T13:47:50.161Z,49.73
2019-02-28T13:50:28.785Z,48.85
2019-02-28T13:53:03.000Z,49.18
2019-02-28T13:55:31.857Z,48.98
2019-02-28T13:58:02.129Z,47.67
2019-02-28T14:00:35.483Z,49.15
2019-02-28T14:03:10.799Z,49.77
2019-02-28T14:05:41.681Z,50.17
2019-02-28T14:08:12.464Z,51.85
2019-02-28T14:10:43.350Z,51.15
2019-02-28T14:13:13.510Z,51.37
2019-02-28T14:15:52.558Z,52.75
2019-02-28T14:18:20.433Z,53.78
2019-02-28T14:20:51.880Z,55.03
2019-02-28T14:23:22.344Z,53.78
2019-02-28T14:25:52.562Z,52.53
2019-02-28T14:28:24.041Z,57.00
2019-02-28T14:30:54.449Z,53.75
2019-02-28T14:33:26.077Z,56.08
2019-02-28T14:35:56.320Z,53.58
2019-02-28T14:38:29.473Z,51.58
2019-02-28T14:40:59.391Z,51.00
2019-02-28T14:43:29.897Z,52.00
2019-02-28T14:46:00.121Z,53.17
2019-02-28T14:48:30.353Z,53.68
2019-02-28T14:51:00.509Z,50.35
2019-02-28T14:53:30.746Z,50.52
2019-02-28T14:56:00.919Z,49.90
2019-02-28T14:58:31.076Z,52.40
2019-02-28T15:01:02.522Z,54.13
2019-02-28T15:03:35.948Z,50.98
2019-02-28T15:06:04.618Z,51.53
2019-02-28T15:08:34.778Z,52.83
2019-02-28T15:11:06.451Z,50.10
2019-02-28T15:13:39.058Z,49.80
2019-02-28T15:16:09.301Z,50.23
2019-02-28T15:18:39.549Z,53.00
2019-02-28T15:21:09.703Z,52.58
2019-02-28T15:23:39.924Z,54.38
2019-02-28T15:26:10.102Z,53.75
2019-02-28T15:28:40.342Z,54.70
2019-02-28T15:31:10.506Z,51.88
2019-02-28T15:33:40.752Z,51.30
2019-02-28T15:36:10.930Z,53.92
2019-02-28T15:38:41.879Z,52.73
2019-02-28T15:41:12.943Z,55.83
2019-02-28T15:43:43.189Z,52.65
2019-02-28T15:46:13.413Z,56.30
2019-02-28T15:48:43.648Z,55.23
2019-02-28T15:51:13.850Z,61.15
2019-02-28T15:53:46.844Z,57.05
2019-02-28T15:56:19.560Z,58.20
2019-02-28T15:58:47.781Z,56.33
2019-02-28T16:01:17.950Z,59.85
2019-02-28T16:03:48.366Z,59.10
2019-02-28T16:06:20.595Z,57.48
2019-02-28T16:08:51.042Z,61.23
2019-02-28T16:11:21.234Z,57.98
2019-02-28T16:13:51.455Z,58.90
2019-02-28T16:16:24.662Z,57.13
2019-02-28T16:18:54.494Z,59.27
2019-02-28T16:21:24.650Z,57.23
2019-02-28T16:23:54.896Z,60.05
2019-02-28T16:26:25.067Z,57.62
2019-02-28T16:28:55.297Z,58.80
2019-02-28T16:31:25.477Z,59.98
2019-02-28T16:33:56.569Z,56.85
2019-02-28T16:36:29.192Z,59.85
2019-02-28T16:38:59.533Z,57.80
2019-02-28T16:41:29.709Z,57.10
2019-02-28T16:43:59.955Z,57.43
2019-02-28T16:46:30.279Z,59.20
2019-02-28T16:49:00.514Z,59.70
2019-02-28T16:51:30.765Z,59.80
2019-02-28T16:54:00.978Z,58.87
2019-02-28T16:56:31.373Z,60.55
2019-02-28T16:59:01.613Z,58.30
2019-02-28T17:01:31.982Z,60.73
2019-02-28T17:04:03.375Z,62.03
2019-02-28T17:06:35.647Z,61.50
2019-02-28T17:09:20.362Z,60.15
2019-02-28T17:11:58.146Z,57.08
2019-02-28T17:14:28.342Z,60.85
2019-02-28T17:17:08.713Z,60.05
2019-02-28T17:19:37.659Z,57.75
2019-02-28T17:22:07.887Z,60.58
2019-02-28T17:24:38.070Z,60.25
2019-02-28T17:27:15.866Z,61.00
2019-02-28T17:29:50.406Z,62.17
2019-02-28T17:32:21.342Z,62.30
2019-02-28T17:34:51.512Z,61.95
2019-02-28T17:37:25.989Z,62.50
2019-02-28T17:39:53.548Z,62.65
2019-02-28T17:42:23.876Z,61.00
2019-02-28T17:45:00.223Z,63.10
2019-02-28T17:47:44.691Z,62.33
2019-02-28T17:50:23.864Z,61.45
2019-02-28T17:53:10.239Z,62.90
2019-02-28T17:56:03.918Z,63.42
2019-02-28T17:59:04.485Z,59.23
2019-02-28T18:01:54.577Z,60.10
2019-02-28T18:05:03.838Z,61.58
2019-02-28T18:07:52.905Z,59.33
2019-02-28T18:10:38.535Z,61.30
2019-02-28T18:13:16.280Z,63.28
2019-02-28T18:15:50.013Z,63.35
2019-02-28T18:18:29.371Z,63.30
2019-02-28T18:21:11.808Z,64.03
2019-02-28T18:26:51.362Z,63.70
2019-02-28T18:29:56.435Z,66.30
2019-02-28T18:32:29.851Z,63.23
2019-02-28T18:37:28.371Z,63.00
2019-02-28T18:39:58.543Z,68.50
2019-02-28T18:42:29.204Z,65.85
2019-02-28T18:44:59.587Z,63.45
2019-02-28T18:47:31.626Z,64.05
2019-02-28T18:50:02.374Z,63.23
2019-02-28T18:52:33.165Z,62.88
2019-02-28T18:55:06.348Z,65.72
2019-02-28T19:00:15.955Z,65.37
2019-02-28T19:02:46.745Z,64.72
2019-02-28T19:05:17.341Z,68.22
2019-02-28T19:07:47.874Z,65.78
2019-02-28T19:10:18.834Z,68.07
2019-02-28T19:12:49.780Z,70.20
2019-02-28T19:15:20.266Z,69.07
2019-02-28T19:17:51.016Z,66.30
2019-02-28T19:20:21.636Z,66.70
2019-02-28T19:22:52.302Z,68.02
2019-02-28T19:25:22.894Z,67.75
2019-02-28T19:27:53.271Z,67.80
2019-02-28T19:30:23.674Z,67.58
2019-02-28T19:32:54.324Z,67.53
2019-02-28T19:35:24.720Z,69.25
2019-02-28T19:37:55.057Z,69.05
2019-02-28T19:40:25.337Z,69.32
2019-02-28T19:42:55.722Z,69.55
2019-02-28T19:45:29.413Z,68.80
2019-02-28T19:47:59.646Z,70.17
2019-02-28T19:50:29.874Z,69.25
2019-02-28T19:53:00.497Z,70.80
2019-02-28T19:55:30.888Z,72.32
2019-02-28T19:58:01.252Z,70.62
2019-02-28T20:00:31.542Z,68.87
2019-02-28T20:03:01.793Z,71.37
2019-02-28T20:05:31.978Z,69.67
2019-02-28T20:08:02.341Z,72.35
2019-02-28T20:10:40.213Z,71.22
2019-02-28T20:13:12.423Z,69.00
2019-02-28T20:15:42.587Z,69.10
2019-02-28T20:18:12.956Z,70.08
2019-02-28T20:20:43.302Z,69.47
2019-02-28T20:23:13.770Z,70.47
2019-02-28T20:25:44.261Z,69.45
2019-02-28T20:28:14.710Z,67.25
2019-02-28T20:30:44.999Z,67.92
2019-02-28T20:33:15.381Z,67.45
2019-02-28T20:35:45.679Z,69.58
2019-02-28T20:38:17.032Z,73.22
2019-02-28T20:40:47.222Z,72.70
2019-02-28T20:43:17.499Z,68.65
2019-02-28T20:45:48.886Z,68.92
2019-02-28T20:48:20.167Z,70.42
2019-02-28T20:50:54.845Z,68.33
2019-02-28T20:53:25.217Z,69.82
2019-02-28T20:55:55.398Z,71.35
2019-02-28T20:58:25.765Z,70.40
2019-02-28T21:00:55.959Z,69.07
2019-02-28T21:03:26.237Z,67.58
2019-02-28T21:05:56.452Z,72.40
2019-02-28T21:08:26.805Z,69.45
2019-02-28T21:10:57.010Z,70.12
2019-02-28T21:13:27.264Z,66.45
2019-02-28T21:15:57.445Z,66.77
2019-02-28T21:18:27.713Z,70.80
2019-02-28T21:20:59.126Z,71.02
2019-02-28T21:23:29.514Z,70.37
2019-02-28T21:26:01.113Z,71.28
2019-02-28T21:28:31.489Z,70.80
2019-02-28T21:31:01.802Z,67.08
2019-02-28T21:33:32.179Z,64.67
2019-02-28T21:36:02.633Z,68.17
2019-02-28T21:38:33.013Z,67.82
2019-02-28T21:41:03.502Z,69.20
2019-02-28T21:43:34.238Z,66.72
2019-02-28T21:46:04.476Z,65.87
2019-02-28T21:48:34.823Z,67.15
2019-02-28T21:51:05.123Z,64.45
2019-02-28T21:53:35.542Z,63.13
2019-02-28T21:56:05.796Z,64.45
2019-02-28T21:58:36.021Z,66.65
2019-02-28T22:01:06.288Z,66.80
2019-02-28T22:03:36.530Z,67.22
2019-02-28T22:06:06.801Z,70.47
2019-02-28T22:08:37.043Z,65.85
2019-02-28T22:11:07.381Z,71.62
2019-02-28T22:13:37.619Z,72.55
2019-02-28T22:16:07.904Z,69.50
2019-02-28T22:18:38.170Z,68.97
2019-02-28T22:21:08.432Z,64.45
2019-02-28T22:23:38.676Z,68.10
2019-02-28T22:26:08.930Z,72.00
2019-02-28T22:28:39.187Z,73.30
2019-02-28T22:31:20.157Z,72.45
2019-02-28T22:33:52.021Z,72.35
2019-02-28T22:36:23.797Z,71.87
2019-02-28T22:38:54.043Z,68.37
2019-02-28T22:41:25.599Z,70.60
2019-02-28T22:43:55.847Z,75.22
2019-02-28T22:46:26.097Z,70.05
2019-02-28T22:48:56.395Z,71.67
2019-02-28T22:51:26.643Z,72.53
2019-02-28T22:53:56.872Z,71.57
2019-02-28T22:56:27.121Z,76.45
2019-02-28T22:58:57.356Z,76.22
2019-02-28T23:01:28.285Z,72.65
2019-02-28T23:03:58.536Z,74.45
2019-02-28T23:06:28.794Z,73.28
2019-02-28T23:08:59.023Z,78.50
2019-02-28T23:11:29.350Z,78.25
2019-02-28T23:13:59.606Z,78.80
2019-02-28T23:16:29.839Z,80.10
2019-02-28T23:19:00.088Z,78.60
2019-02-28T23:21:30.360Z,75.15
2019-02-28T23:24:00.650Z,77.35
2019-02-28T23:26:30.953Z,77.27
2019-02-28T23:29:04.415Z,74.60
2019-02-28T23:31:47.779Z,77.40
2019-02-28T23:34:21.232Z,75.90
2019-02-28T23:36:51.471Z,74.87
2019-02-28T23:39:21.717Z,74.45
2019-02-28T23:41:51.908Z,76.65
2019-02-28T23:44:22.154Z,74.55
2019-02-28T23:46:52.344Z,75.85
2019-02-28T23:49:22.591Z,74.00
2019-02-28T23:51:53.776Z,73.28
2019-02-28T23:54:24.223Z,72.62
2019-02-28T23:56:54.398Z,71.10
2019-02-28T23:59:24.722Z,70.92
